Terminal Aerodrome Forecast
Issued by NWS

Home | Current Version | Previous Version | Text Only | Print | Product List | Glossary On
Versions: 1 2 3 4 5 6 7 8 9 10 11 12 13 14
000
FTAK31 PAJN 281724
TAFAWG
TAF
PAWG 281724Z 2818/2918 11012G20KT 6SM -RA BR SCT018 OVC030
      WS020/16030KT
     FM281900 12014G23KT 5SM RA BR SCT015 OVC025 WS020/16030KT
     FM290200 13012G19KT 6SM -RA BR BKN025 OVC040 WS020/15025KT
     FM291000 13011KT 5SM -RA BR BKN020 OVC030
     FM291500 13008KT 5SM -RA BR BKN020 OVC030
      AMD LTD TO CLD VIS AND WIND 2906/2915=

USA.gov is the U.S. government's official web portal to all federal, state and local government web resources and services.